Time;durP1;ratioP1;P1;durP2;ratioP2;P2;SDS_P1;SDS_P2;PMS_P1;PMS_P2;Temp;Humidity;BMP_temperature;BMP_pressure;BME280_temperature;BME280_humidity;BME280_pressure;Samples;Min_cycle;Max_cycle;Signal;HPM_P1;HPM_P2
2023/01/09 00:01:40;;;;;;;57.73;7.10;;;;;;;16.73;nan;102262.53;4982538;28;20456;-87
2023/01/09 00:04:08;;;;;;;79.73;9.07;;;;;;;16.73;nan;102257.88;4982493;28;20463;-87
2023/01/09 00:06:38;;;;;;;50.17;8.30;;;;;;;16.64;nan;102250.75;4982704;28;20448;-87
2023/01/09 00:09:07;;;;;;;39.37;7.23;;;;;;;16.72;nan;102250.63;4983031;28;20781;-86
2023/01/09 00:11:37;;;;;;;44.63;6.90;;;;;;;16.65;nan;102235.03;4998751;28;20452;-87
2023/01/09 00:14:06;;;;;;;47.43;5.97;;;;;;;16.71;nan;102248.06;4998008;28;20460;-87
2023/01/09 00:16:38;;;;;;;79.90;8.77;;;;;;;16.73;nan;102245.97;4975707;28;20971;-87
2023/01/09 00:19:06;;;;;;;63.37;7.63;;;;;;;16.70;nan;102240.84;4883298;29;20465;-88
2023/01/09 00:21:35;;;;;;;51.77;8.63;;;;;;;16.72;nan;102244.25;4898146;29;20454;-87
2023/01/09 00:24:03;;;;;;;65.97;8.80;;;;;;;16.71;nan;102248.06;4882797;29;20461;-87
2023/01/09 00:26:32;;;;;;;65.40;8.80;;;;;;;16.76;nan;102248.31;4925908;29;20487;-88
2023/01/09 00:29:00;;;;;;;39.67;4.90;;;;;;;16.77;nan;102277.63;4905166;29;20571;-88
2023/01/09 00:31:29;;;;;;;32.70;6.00;;;;;;;16.72;nan;102272.72;4919799;29;20454;-88
2023/01/09 00:33:58;;;;;;;30.03;5.83;;;;;;;16.61;nan;102264.06;4904839;29;20443;-88
2023/01/09 00:36:27;;;;;;;16.77;3.80;;;;;;;16.60;nan;102279.78;4920094;29;20455;-88
2023/01/09 00:38:56;;;;;;;19.73;2.80;;;;;;;16.57;nan;102281.00;4889166;29;20460;-87
2023/01/09 00:41:35;;;;;;;26.90;3.97;;;;;;;16.52;nan;102266.97;4919434;29;20609;-87
2023/01/09 00:44:10;;;;;;;21.73;3.67;;;;;;;16.46;nan;102270.50;4935316;28;20456;-87
2023/01/09 00:46:40;;;;;;;17.70;3.30;;;;;;;16.41;nan;102269.38;4995027;28;20974;-87
2023/01/09 00:49:08;;;;;;;23.23;3.17;;;;;;;16.40;nan;102263.00;4972462;28;20457;-87
2023/01/09 00:51:38;;;;;;;14.13;3.07;;;;;;;16.43;nan;102273.63;4993901;28;20465;-87
2023/01/09 00:54:06;;;;;;;25.67;3.90;;;;;;;16.42;nan;102282.13;4988056;28;20951;-88
2023/01/09 00:56:34;;;;;;;22.87;3.80;;;;;;;16.41;nan;102280.41;4978515;28;20965;-88
2023/01/09 00:59:04;;;;;;;27.03;4.23;;;;;;;16.38;nan;102264.22;4970748;28;20457;-87
2023/01/09 01:01:32;;;;;;;33.03;4.20;;;;;;;16.34;nan;102269.31;4978676;28;20481;-88
2023/01/09 01:07:37;;;;;;;22.50;4.43;;;;;;;16.37;nan;102277.16;4971096;28;20449;-87
2023/01/09 01:09:32;;;;;;;25.87;4.27;;;;;;;16.34;nan;102269.31;4977612;28;20449;-87
2023/01/09 01:12:00;;;;;;;27.77;3.70;;;;;;;16.38;nan;102270.59;4985674;28;20445;-88
2023/01/09 01:14:28;;;;;;;23.73;3.43;;;;;;;16.38;nan;102264.22;4962006;28;20449;-88
2023/01/09 01:16:56;;;;;;;26.83;4.00;;;;;;;16.37;nan;102277.16;4978111;28;20503;-87
2023/01/09 01:19:34;;;;;;;20.87;3.50;;;;;;;16.36;nan;102282.88;4875045;29;20451;-88
2023/01/09 01:22:02;;;;;;;13.00;2.60;;;;;;;16.29;nan;102266.28;4878598;29;20945;-88
2023/01/09 01:24:33;;;;;;;19.27;2.70;;;;;;;16.30;nan;102281.78;4863421;29;20458;-87
2023/01/09 01:27:03;;;;;;;19.10;2.80;;;;;;;16.20;nan;102257.25;4905590;29;20481;-87
2023/01/09 01:29:31;;;;;;;14.70;3.03;;;;;;;16.21;nan;102266.38;4899766;29;20476;-87
2023/01/09 01:32:01;;;;;;;10.83;2.13;;;;;;;16.21;nan;102280.16;4900190;29;20495;-88
2023/01/09 01:34:29;;;;;;;13.30;2.57;;;;;;;16.18;nan;102259.34;4863768;29;20535;-88
2023/01/09 01:36:58;;;;;;;17.67;2.70;;;;;;;16.12;nan;102242.72;4905866;28;20454;-89
2023/01/09 01:39:25;;;;;;;14.47;3.20;;;;;;;16.10;nan;102233.78;4994962;28;20452;-88
2023/01/09 01:41:54;;;;;;;13.63;2.97;;;;;;;16.12;nan;102248.25;4980775;28;20499;-88
2023/01/09 01:44:59;;;;;;;11.57;2.70;;;;;;;16.10;nan;102251.19;4997258;28;20922;-88
2023/01/09 01:47:49;;;;;;;10.53;2.40;;;;;;;16.07;nan;102250.72;5013364;28;20455;-87
2023/01/09 01:50:21;;;;;;;10.27;2.10;;;;;;;15.99;nan;102239.78;4996459;28;20490;-87
2023/01/09 01:53:11;;;;;;;9.80;2.53;;;;;;;15.99;nan;102242.53;5012711;28;20502;-87
2023/01/09 01:55:59;;;;;;;10.77;2.40;;;;;;;16.00;nan;102249.75;4998925;28;20490;-87
2023/01/09 01:58:28;;;;;;;7.07;1.60;;;;;;;15.94;nan;102242.28;5012647;28;20452;-87
2023/01/09 02:00:57;;;;;;;10.93;2.57;;;;;;;15.93;nan;102251.59;4980833;28;20479;-87
2023/01/09 02:03:26;;;;;;;11.67;3.17;;;;;;;15.92;nan;102260.91;4980399;28;20449;-87
2023/01/09 02:05:54;;;;;;;13.10;2.70;;;;;;;15.86;nan;102255.13;4980197;28;20961;-87
2023/01/09 02:08:23;;;;;;;13.50;4.00;;;;;;;15.85;nan;102253.41;4980489;28;20452;-87
2023/01/09 02:10:51;;;;;;;18.00;6.13;;;;;;;15.82;nan;102248.28;4996791;28;20996;-87
2023/01/09 02:13:18;;;;;;;16.33;4.60;;;;;;;15.82;nan;102253.78;4980118;28;20448;-87
2023/01/09 02:16:15;;;;;;;30.23;4.33;;;;;;;15.82;nan;102253.78;4980527;28;20452;-87
2023/01/09 02:18:53;;;;;;;12.87;2.70;;;;;;;15.78;nan;102252.44;5012540;28;20847;-87
2023/01/09 02:21:47;;;;;;;20.23;2.30;;;;;;;15.80;nan;102266.91;4968489;28;20476;-88
2023/01/09 02:24:25;;;;;;;19.90;2.70;;;;;;;15.78;nan;102246.06;4983719;28;20522;-87
2023/01/09 02:27:06;;;;;;;18.63;2.83;;;;;;;15.80;nan;102261.38;5012212;28;20484;-87
2023/01/09 02:30:01;;;;;;;23.57;4.43;;;;;;;15.81;nan;102265.00;5013139;28;20445;-87
2023/01/09 02:32:45;;;;;;;23.07;3.73;;;;;;;15.82;nan;102264.81;5013311;28;20498;-88
2023/01/09 02:35:22;;;;;;;23.03;3.10;;;;;;;15.83;nan;102260.16;5011507;28;20456;-87
2023/01/09 02:38:09;;;;;;;25.03;3.70;;;;;;;15.82;nan;102264.81;5012172;28;20467;-87
2023/01/09 02:41:21;;;;;;;32.67;3.60;;;;;;;15.83;nan;102257.41;4996110;28;20484;-88
2023/01/09 02:44:10;;;;;;;23.50;3.07;;;;;;;15.82;nan;102256.53;5012038;28;20448;-88
2023/01/09 02:46:39;;;;;;;21.23;3.83;;;;;;;15.89;nan;102264.91;5011634;28;20456;-87
2023/01/09 02:49:08;;;;;;;23.47;3.83;;;;;;;15.89;nan;102264.91;4979928;28;20455;-88
2023/01/09 02:51:48;;;;;;;25.60;5.07;;;;;;;15.91;nan;102264.72;4980338;28;20456;-87
2023/01/09 02:54:32;;;;;;;31.73;3.77;;;;;;;15.96;nan;102270.53;5012256;28;20451;-87
2023/01/09 02:57:30;;;;;;;27.10;5.23;;;;;;;15.98;nan;102273.91;4995921;28;20447;-88
2023/01/09 03:00:07;;;;;;;23.60;3.23;;;;;;;16.01;nan;102273.53;4995661;28;20479;-87
2023/01/09 03:02:43;;;;;;;30.07;5.13;;;;;;;16.09;nan;102276.19;5011981;28;20451;-87
2023/01/09 03:05:27;;;;;;;33.97;5.27;;;;;;;16.11;nan;102268.59;5011101;28;20455;-87
2023/01/09 03:08:35;;;;;;;37.43;4.80;;;;;;;16.15;nan;102275.44;5011771;28;20456;-87
2023/01/09 03:11:06;;;;;;;25.80;4.83;;;;;;;16.11;nan;102269.44;4996481;28;20455;-88
2023/01/09 03:14:01;;;;;;;31.13;4.20;;;;;;;16.18;nan;102277.78;4984347;28;20451;-87
2023/01/09 03:16:35;;;;;;;28.83;4.97;;;;;;;16.20;nan;102275.69;5006758;28;20444;-87
2023/01/09 03:19:05;;;;;;;32.03;4.43;;;;;;;16.21;nan;102274.66;4999499;28;20459;-87
2023/01/09 03:21:33;;;;;;;28.50;5.07;;;;;;;16.22;nan;102274.47;4983353;28;20863;-87
2023/01/09 03:24:01;;;;;;;35.50;5.80;;;;;;;16.20;nan;102276.53;4999529;28;20463;-88
2023/01/09 03:26:29;;;;;;;48.23;5.37;;;;;;;16.30;nan;102279.03;4982999;28;20538;-86
2023/01/09 03:28:58;;;;;;;31.03;4.80;;;;;;;16.32;nan;102276.91;4983744;28;20448;-88
2023/01/09 03:31:26;;;;;;;35.23;5.13;;;;;;;16.30;nan;102262.47;4983096;28;20502;-87
2023/01/09 03:33:55;;;;;;;45.77;6.60;;;;;;;16.38;nan;102286.31;4989070;28;20457;-87
2023/01/09 03:36:23;;;;;;;34.97;4.97;;;;;;;16.35;nan;102282.06;4994378;28;20502;-87
2023/01/09 03:38:51;;;;;;;42.23;5.70;;;;;;;16.38;nan;102287.16;4982975;28;20453;-86
2023/01/09 03:41:19;;;;;;;40.63;4.60;;;;;;;16.33;nan;102275.88;4999133;28;20491;-87
2023/01/09 03:43:47;;;;;;;47.00;6.60;;;;;;;16.36;nan;102278.22;4982434;28;20452;-87
2023/01/09 03:46:17;;;;;;;43.80;5.10;;;;;;;16.33;nan;102278.63;4972416;28;20444;-87
2023/01/09 03:48:44;;;;;;;41.47;5.27;;;;;;;16.37;nan;102288.22;4999402;28;20452;-87
2023/01/09 03:51:14;;;;;;;43.10;5.03;;;;;;;16.40;nan;102279.53;4990959;28;20448;-91
2023/01/09 03:53:45;;;;;;;32.93;5.80;;;;;;;16.43;nan;102279.16;4975958;28;20517;-87
2023/01/09 03:56:14;;;;;;;60.33;7.70;;;;;;;16.44;nan;102285.53;5013242;28;20452;-87
2023/01/09 03:58:42;;;;;;;34.50;5.03;;;;;;;16.46;nan;102288.97;4983343;28;20444;-87
2023/01/09 04:01:11;;;;;;;47.37;6.60;;;;;;;16.45;nan;102285.34;4982585;28;20510;-87
2023/01/09 04:03:39;;;;;;;32.63;5.50;;;;;;;16.46;nan;102288.97;5014944;28;20452;-87
2023/01/09 04:06:09;;;;;;;40.23;7.20;;;;;;;16.47;nan;102288.78;5013879;28;20514;-86
2023/01/09 04:08:37;;;;;;;44.07;6.43;;;;;;;16.47;nan;102287.91;5014318;28;20499;-87
2023/01/09 04:11:05;;;;;;;47.03;5.83;;;;;;;16.45;nan;102282.59;4999107;28;20455;-87
2023/01/09 04:13:34;;;;;;;42.73;5.73;;;;;;;16.42;nan;102288.50;4982061;28;20452;-87
2023/01/09 04:16:02;;;;;;;54.80;6.53;;;;;;;16.40;nan;102275.94;5013045;28;20452;-87
2023/01/09 04:18:32;;;;;;;45.53;5.97;;;;;;;16.41;nan;102280.41;4998143;28;20452;-87
2023/01/09 04:21:01;;;;;;;48.57;6.80;;;;;;;16.39;nan;102286.13;4997893;28;20476;-87
2023/01/09 04:23:29;;;;;;;63.27;6.83;;;;;;;16.37;nan;102285.44;4981758;28;20441;-87
2023/01/09 04:25:57;;;;;;;45.37;6.80;;;;;;;16.34;nan;102285.88;4981605;28;20479;-87
2023/01/09 04:28:25;;;;;;;55.83;7.10;;;;;;;16.34;nan;102279.50;4982513;28;20494;-87
2023/01/09 04:30:52;;;;;;;39.30;6.90;;;;;;;16.28;nan;102271.97;4997748;28;20850;-87
2023/01/09 04:33:20;;;;;;;57.13;7.10;;;;;;;16.31;nan;102275.22;4998389;28;20815;-87
2023/01/09 04:35:48;;;;;;;64.40;8.07;;;;;;;16.28;nan;102281.13;4981362;28;20510;-87
2023/01/09 04:38:17;;;;;;;49.73;5.87;;;;;;;16.27;nan;102278.53;4997924;28;20793;-88
2023/01/09 04:40:47;;;;;;;39.20;6.60;;;;;;;16.24;nan;102274.25;4998571;28;20981;-87
2023/01/09 04:43:16;;;;;;;64.93;9.40;;;;;;;16.23;nan;102272.56;4981480;28;20444;-86
2023/01/09 04:45:48;;;;;;;63.73;8.10;;;;;;;16.21;nan;102280.16;4981874;28;20456;-88
2023/01/09 04:48:16;;;;;;;49.73;7.77;;;;;;;16.16;nan;102277.16;5013791;28;20490;-87
2023/01/09 04:50:44;;;;;;;69.27;8.00;;;;;;;16.12;nan;102267.56;4981578;28;21016;-87
2023/01/09 04:53:11;;;;;;;50.00;7.23;;;;;;;16.10;nan;102272.41;4981575;28;20448;-87
2023/01/09 04:55:40;;;;;;;50.17;7.67;;;;;;;16.06;nan;102271.06;4997111;28;20456;-87
2023/01/09 04:58:17;;;;;;;54.83;7.40;;;;;;;16.02;nan;102264.22;5013076;28;20452;-87
2023/01/09 05:00:46;;;;;;;42.97;7.00;;;;;;;16.06;nan;102282.94;4997534;28;20507;-88
2023/01/09 05:03:16;;;;;;;41.50;7.03;;;;;;;16.01;nan;102277.16;4998072;28;20819;-87
2023/01/09 05:05:45;;;;;;;58.50;7.23;;;;;;;16.03;nan;102271.44;5012205;28;20452;-88
2023/01/09 05:08:13;;;;;;;43.97;6.73;;;;;;;15.99;nan;102270.97;4997124;28;20977;-88
2023/01/09 05:10:42;;;;;;;49.60;6.93;;;;;;;16.03;nan;102280.56;4981008;28;21077;-87
2023/01/09 05:13:10;;;;;;;40.13;5.20;;;;;;;16.00;nan;102269.06;4997547;28;20460;-87
2023/01/09 05:15:37;;;;;;;53.83;7.00;;;;;;;16.02;nan;102275.25;4981397;28;20510;-87
2023/01/09 05:18:05;;;;;;;52.00;7.53;;;;;;;16.04;nan;102270.41;4997634;28;20452;-87
2023/01/09 05:20:33;;;;;;;69.23;9.70;;;;;;;16.10;nan;102272.41;5012896;28;20956;-87
2023/01/09 05:23:02;;;;;;;39.23;6.40;;;;;;;16.08;nan;102280.00;4997472;28;20448;-88
2023/01/09 05:25:31;;;;;;;55.43;7.77;;;;;;;16.09;nan;102278.97;4974156;28;20481;-87
2023/01/09 05:28:00;;;;;;;65.33;8.33;;;;;;;16.07;nan;102272.78;4978278;28;20453;-88
2023/01/09 05:30:31;;;;;;;50.03;6.70;;;;;;;16.10;nan;102273.25;4983845;28;20522;-87
2023/01/09 05:32:59;;;;;;;55.93;7.53;;;;;;;16.10;nan;102283.44;4980651;28;20449;-87
2023/01/09 05:35:27;;;;;;;38.50;6.90;;;;;;;16.07;nan;102267.25;4973100;28;20445;-87
2023/01/09 05:37:55;;;;;;;46.37;7.40;;;;;;;16.02;nan;102262.31;5009523;28;20909;-89
2023/01/09 05:40:23;;;;;;;53.33;8.00;;;;;;;16.12;nan;102275.81;4969714;28;20461;-88
2023/01/09 05:42:59;;;;;;;50.70;6.93;;;;;;;16.12;nan;102275.81;4970231;28;21016;-87
2023/01/09 05:45:27;;;;;;;42.90;7.20;;;;;;;16.13;nan;102285.81;4981177;28;20448;-88
2023/01/09 05:47:54;;;;;;;46.70;6.27;;;;;;;16.14;nan;102274.59;4980967;28;20474;-87
2023/01/09 05:50:22;;;;;;;44.43;7.93;;;;;;;16.17;nan;102285.22;5012625;28;20461;-87
2023/01/09 05:52:51;;;;;;;46.27;7.80;;;;;;;16.23;nan;102302.91;5013235;28;20452;-87
2023/01/09 05:55:20;;;;;;;33.77;4.70;;;;;;;16.28;nan;102305.94;4996478;28;20862;-88
2023/01/09 05:57:47;;;;;;;31.40;4.77;;;;;;;16.17;nan;102296.25;4996534;28;20460;-88
2023/01/09 06:00:17;;;;;;;36.90;4.10;;;;;;;16.17;nan;102312.78;5012446;28;20486;-87
2023/01/09 06:02:44;;;;;;;24.17;5.00;;;;;;;16.11;nan;102307.22;4980672;28;20553;-87
2023/01/09 06:05:13;;;;;;;20.13;3.47;;;;;;;16.11;nan;102307.22;5011929;28;20804;-88
2023/01/09 06:07:41;;;;;;;33.30;4.27;;;;;;;16.05;nan;102300.56;4995752;28;20449;-88
2023/01/09 06:10:13;;;;;;;16.77;3.13;;;;;;;16.08;nan;102310.34;4993970;28;20456;-87
2023/01/09 06:12:41;;;;;;;19.57;3.67;;;;;;;16.07;nan;102311.41;4980721;28;20464;-87
2023/01/09 06:15:09;;;;;;;18.13;3.03;;;;;;;16.04;nan;102306.25;4980574;28;20788;-88
2023/01/09 06:17:37;;;;;;;21.43;2.67;;;;;;;16.04;nan;102311.78;5012907;28;20445;-87
2023/01/09 06:20:08;;;;;;;16.80;3.03;;;;;;;16.01;nan;102309.41;4995515;28;20857;-87
2023/01/09 06:22:38;;;;;;;18.43;3.10;;;;;;;16.03;nan;102329.38;5012481;28;20475;-87
2023/01/09 06:25:06;;;;;;;15.73;2.30;;;;;;;16.04;nan;102334.69;4981207;28;20448;-88
2023/01/09 06:27:34;;;;;;;14.20;2.80;;;;;;;16.03;nan;102332.13;4983763;28;20459;-87
2023/01/09 06:30:09;;;;;;;22.30;2.47;;;;;;;16.03;nan;102332.13;4984459;28;20459;-87
2023/01/09 06:32:40;;;;;;;22.47;3.57;;;;;;;16.02;nan;102341.44;4999767;28;20455;-91
2023/01/09 06:35:08;;;;;;;21.23;3.70;;;;;;;15.99;nan;102331.66;4997824;28;20811;-88
2023/01/09 06:37:37;;;;;;;31.47;4.67;;;;;;;16.01;nan;102342.50;5000207;28;20850;-86
2023/01/09 06:40:06;;;;;;;24.93;3.10;;;;;;;16.01;nan;102345.25;4999723;28;20443;-86
2023/01/09 06:42:37;;;;;;;26.30;3.60;;;;;;;16.03;nan;102354.19;5015382;28;20483;-86
2023/01/09 06:45:08;;;;;;;22.60;3.97;;;;;;;16.01;nan;102350.75;5016322;28;20455;-87
2023/01/09 06:47:37;;;;;;;23.17;3.50;;;;;;;16.00;nan;102355.41;5020271;28;20451;-86
2023/01/09 06:50:10;;;;;;;20.93;2.80;;;;;;;15.98;nan;102357.50;5003435;28;20983;-87
2023/01/09 06:52:39;;;;;;;16.00;2.80;;;;;;;15.99;nan;102359.22;5004575;28;20447;-87
2023/01/09 06:55:07;;;;;;;24.20;3.40;;;;;;;15.98;nan;102364.94;5003310;28;20447;-87
2023/01/09 06:57:36;;;;;;;11.33;2.37;;;;;;;15.96;nan;102375.31;4986976;28;20447;-87
2023/01/09 07:00:07;;;;;;;19.13;2.63;;;;;;;15.98;nan;102378.72;5018873;28;20447;-90
2023/01/09 07:02:36;;;;;;;17.70;3.13;;;;;;;15.97;nan;102377.03;4965017;28;20913;-87
2023/01/09 07:05:06;;;;;;;19.73;2.70;;;;;;;15.89;nan;102369.69;4997682;28;20949;-86
2023/01/09 07:07:34;;;;;;;17.60;2.83;;;;;;;15.94;nan;102377.41;4988176;28;20508;-87
2023/01/09 07:10:03;;;;;;;14.03;2.77;;;;;;;15.95;nan;102390.16;4985732;28;20868;-87
2023/01/09 07:12:32;;;;;;;18.90;3.60;;;;;;;15.95;nan;102388.25;5003123;28;20805;-87
2023/01/09 07:14:59;;;;;;;21.80;4.53;;;;;;;15.95;nan;102387.41;4987121;28;20452;-87
2023/01/09 07:17:31;;;;;;;31.20;5.53;;;;;;;15.93;nan;102389.47;4986386;28;20463;-87
2023/01/09 07:20:00;;;;;;;17.53;3.80;;;;;;;15.96;nan;102394.63;4921513;29;20454;-87
2023/01/09 07:22:28;;;;;;;24.50;4.60;;;;;;;15.96;nan;102394.63;4921886;29;20487;-87
2023/01/09 07:24:56;;;;;;;20.03;5.13;;;;;;;15.93;nan;102392.25;4921413;29;20452;-87
2023/01/09 07:27:24;;;;;;;17.73;3.40;;;;;;;15.99;nan;102397.84;4904952;29;20833;-88
2023/01/09 07:29:53;;;;;;;29.47;4.07;;;;;;;15.99;nan;102403.34;4896430;29;20467;-87
2023/01/09 07:32:20;;;;;;;26.87;3.40;;;;;;;16.02;nan;102414.00;4921655;29;20985;-87
2023/01/09 07:34:50;;;;;;;26.23;3.33;;;;;;;16.03;nan;102415.72;4875606;29;20548;-88
2023/01/09 07:37:23;;;;;;;22.80;3.27;;;;;;;16.04;nan;102411.06;4936989;28;20448;-88
2023/01/09 07:39:54;;;;;;;18.43;4.03;;;;;;;16.02;nan;102414.00;4996641;28;20456;-89
2023/01/09 07:42:22;;;;;;;21.07;3.90;;;;;;;16.05;nan;102423.81;4991513;28;20484;-87
2023/01/09 07:44:51;;;;;;;23.77;3.40;;;;;;;16.02;nan;102424.19;4982733;28;20452;-87
2023/01/09 07:47:20;;;;;;;24.73;3.63;;;;;;;16.02;nan;102424.19;4905496;29;20454;-87
2023/01/09 07:49:48;;;;;;;26.77;3.13;;;;;;;16.03;nan;102436.94;4920792;29;20444;-87
2023/01/09 07:52:16;;;;;;;16.17;3.43;;;;;;;16.01;nan;102430.75;4905597;29;20823;-87
2023/01/09 07:55:00;;;;;;;23.43;3.70;;;;;;;16.00;nan;102431.78;4909175;29;20469;-87
2023/01/09 07:57:29;;;;;;;13.53;2.80;;;;;;;16.04;nan;102444.16;4910797;29;20510;-87
2023/01/09 07:59:59;;;;;;;23.00;2.70;;;;;;;16.01;nan;102436.25;4830137;29;21076;-88
2023/01/09 08:02:28;;;;;;;22.73;2.77;;;;;;;16.00;nan;102443.69;4861311;29;20641;-87
2023/01/09 08:04:58;;;;;;;15.60;3.10;;;;;;;15.99;nan;102443.88;4864967;29;20444;-87
2023/01/09 08:07:28;;;;;;;29.30;2.43;;;;;;;15.98;nan;102451.28;4937644;29;21032;-86
2023/01/09 08:09:56;;;;;;;14.90;2.03;;;;;;;16.00;nan;102453.84;4920420;29;20463;-86
2023/01/09 08:12:24;;;;;;;22.40;3.10;;;;;;;15.97;nan;102448.75;4891620;29;20444;-87
2023/01/09 08:14:54;;;;;;;9.43;2.27;;;;;;;16.01;nan;102463.84;4901003;29;20510;-87
2023/01/09 08:17:22;;;;;;;11.00;2.20;;;;;;;16.01;nan;102466.59;4924220;29;20510;-87
2023/01/09 08:19:53;;;;;;;13.43;2.20;;;;;;;16.00;nan;102464.88;4923082;29;20844;-87
2023/01/09 08:22:28;;;;;;;21.30;4.03;;;;;;;16.01;nan;102466.59;4871882;29;20504;-88
2023/01/09 08:25:02;;;;;;;11.73;2.80;;;;;;;16.00;nan;102462.13;4968241;28;20459;-92
2023/01/09 08:27:32;;;;;;;18.07;2.80;;;;;;;16.00;nan;102465.75;4998519;28;20570;-89
2023/01/09 08:30:01;;;;;;;16.17;2.67;;;;;;;16.01;nan;102455.56;4982593;28;20942;-88
2023/01/09 08:32:30;;;;;;;21.73;2.70;;;;;;;16.01;nan;102461.09;4996884;28;20809;-88
2023/01/09 08:34:57;;;;;;;11.90;1.93;;;;;;;16.06;nan;102466.91;4981838;28;20808;-88
2023/01/09 08:37:25;;;;;;;10.40;2.30;;;;;;;16.06;nan;102465.00;4982201;28;20463;-89
2023/01/09 08:39:55;;;;;;;18.30;3.50;;;;;;;16.07;nan;102469.47;4967343;28;20442;-90
2023/01/09 08:48:03;;;;;;;17.00;2.53;;;;;;;16.09;nan;102477.56;5003367;28;20459;-91
2023/01/09 08:50:33;;;;;;;18.30;2.20;;;;;;;16.06;nan;102475.19;4994075;28;20457;-91
2023/01/09 08:53:01;;;;;;;12.23;2.73;;;;;;;16.04;nan;102477.25;4982667;28;20455;-90
2023/01/09 08:55:29;;;;;;;13.53;3.47;;;;;;;16.07;nan;102479.66;4981932;28;20441;-90
2023/01/09 08:57:58;;;;;;;22.47;3.27;;;;;;;16.11;nan;102483.75;4982300;28;20456;-90
2023/01/09 09:00:28;;;;;;;18.40;2.80;;;;;;;16.10;nan;102482.91;4982939;28;20957;-90
2023/01/09 09:03:08;;;;;;;16.63;3.20;;;;;;;16.09;nan;102483.94;5000834;28;20479;-91
2023/01/09 09:05:46;;;;;;;12.83;3.30;;;;;;;16.21;nan;102500.88;4996468;28;20453;-89
2023/01/09 09:08:30;;;;;;;21.37;3.90;;;;;;;16.22;nan;102491.56;4990919;28;20452;-90
2023/01/09 09:11:00;;;;;;;24.33;3.50;;;;;;;16.31;nan;102498.72;4999701;28;20532;-89
2023/01/09 09:13:34;;;;;;;31.93;3.90;;;;;;;16.44;nan;102512.72;4968692;28;20981;-89
2023/01/09 09:16:01;;;;;;;37.47;4.90;;;;;;;16.62;nan;102525.28;4963328;28;20457;-86
2023/01/09 09:18:29;;;;;;;43.37;6.37;;;;;;;16.84;nan;102510.56;4962683;28;20449;-86
2023/01/09 09:20:57;;;;;;;40.07;4.67;;;;;;;17.06;nan;102515.09;4984857;28;20456;-85
2023/01/09 09:23:25;;;;;;;53.03;6.10;;;;;;;17.26;nan;102532.78;5020396;28;20820;-88
2023/01/09 09:25:54;;;;;;;36.40;5.90;;;;;;;17.36;nan;102537.97;4999019;28;20472;-86
2023/01/09 09:28:22;;;;;;;42.67;5.40;;;;;;;17.46;nan;102541.31;5000197;28;20440;-87
2023/01/09 09:30:53;;;;;;;25.47;4.50;;;;;;;17.51;nan;102543.50;4997139;28;20461;-88
2023/01/09 09:33:23;;;;;;;32.97;5.07;;;;;;;17.47;nan;102544.94;5014271;28;20441;-89
2023/01/09 09:35:50;;;;;;;21.90;3.30;;;;;;;17.42;nan;102550.16;5001912;28;20457;-90
2023/01/09 09:38:18;;;;;;;19.73;3.20;;;;;;;17.41;nan;102557.59;5002813;28;20445;-89
2023/01/09 09:44:54;;;;;;;26.17;3.47;;;;;;;17.42;nan;102572.28;4976028;28;21010;-92
2023/01/09 09:47:28;;;;;;;13.47;2.60;;;;;;;17.43;nan;102565.72;4996840;28;20455;-89
2023/01/09 09:50:28;;;;;;;25.17;3.30;;;;;;;17.39;nan;102556.09;4997968;28;20452;-89
2023/01/09 09:53:14;;;;;;;30.07;3.60;;;;;;;17.53;nan;102574.53;4983313;28;20459;-89
2023/01/09 09:55:44;;;;;;;23.73;3.50;;;;;;;17.53;nan;102575.38;5013751;28;20459;-89
2023/01/09 09:58:20;;;;;;;17.33;2.70;;;;;;;17.68;nan;102593.91;4981835;28;20458;-89
2023/01/09 10:00:50;;;;;;;14.23;3.37;;;;;;;17.69;nan;102584.56;5014262;28;20530;-89
2023/01/09 10:03:44;;;;;;;19.80;2.90;;;;;;;17.82;nan;102587.47;4996999;28;20487;-89
2023/01/09 10:06:17;;;;;;;22.33;3.80;;;;;;;17.87;nan;102605.19;4999053;28;20482;-89
2023/01/09 10:09:02;;;;;;;19.37;3.60;;;;;;;17.96;nan;102600.38;5013315;28;20444;-89
2023/01/09 10:11:41;;;;;;;26.17;3.40;;;;;;;17.97;nan;102604.00;5013007;28;20448;-89
2023/01/09 10:14:13;;;;;;;31.77;4.10;;;;;;;18.00;nan;102598.91;4997379;28;20452;-89
2023/01/09 10:17:27;;;;;;;32.07;4.30;;;;;;;18.13;nan;102612.03;4906023;29;20443;-89
2023/01/09 10:20:10;;;;;;;23.00;4.00;;;;;;;18.13;nan;102626.72;4877361;29;20525;-89
2023/01/09 10:22:38;;;;;;;33.53;4.30;;;;;;;18.14;nan;102628.44;4877852;29;20613;-89
2023/01/09 10:25:30;;;;;;;29.93;4.60;;;;;;;18.21;nan;102629.38;4877730;29;20446;-89
2023/01/09 10:28:22;;;;;;;28.70;5.10;;;;;;;18.37;nan;102636.53;4862399;29;20878;-87
2023/01/09 10:31:22;;;;;;;25.70;4.27;;;;;;;18.41;nan;102643.41;4877527;29;20458;-86
2023/01/09 10:34:10;;;;;;;27.13;4.00;;;;;;;18.57;nan;102647.78;4831473;29;20458;-86
2023/01/09 10:36:56;;;;;;;29.07;5.30;;;;;;;18.58;nan;102643.97;4899954;29;20809;-87
2023/01/09 10:39:52;;;;;;;31.83;4.20;;;;;;;18.55;nan;102633.28;4992895;28;20457;-86
2023/01/09 14:45:51;;;;;;;16.87;2.77;;;;;;;18.79;nan;102518.44;5412416;23;21006;-88
2023/01/09 14:48:21;;;;;;;21.33;2.50;;;;;;;18.81;nan;102525.47;4886550;29;20473;-87
2023/01/09 14:50:56;;;;;;;9.20;2.03;;;;;;;18.89;nan;102532.75;4924406;29;20476;-87
2023/01/09 14:53:30;;;;;;;12.87;1.83;;;;;;;18.91;nan;102522.31;4911038;29;20444;-88
2023/01/09 14:55:59;;;;;;;8.77;1.97;;;;;;;18.88;nan;102519.94;4910127;29;20483;-89
2023/01/09 14:58:29;;;;;;;12.87;1.80;;;;;;;18.84;nan;102524.22;4925261;29;20440;-87
2023/01/09 15:00:59;;;;;;;8.50;1.70;;;;;;;18.78;nan;102536.09;4909987;29;20441;-89
2023/01/09 15:03:50;;;;;;;17.67;3.13;;;;;;;18.66;nan;102524.75;4924562;29;20480;-89
2023/01/09 15:06:22;;;;;;;8.17;1.47;;;;;;;18.68;nan;102532.81;4912910;29;20457;-87
2023/01/09 15:09:27;;;;;;;6.83;1.07;;;;;;;18.89;nan;102533.59;4943622;29;20452;-87
2023/01/09 15:12:00;;;;;;;7.23;1.87;;;;;;;18.92;nan;102527.66;4910712;29;20460;-88
2023/01/09 15:14:40;;;;;;;10.20;1.83;;;;;;;18.85;nan;102525.94;4868368;29;20456;-88
2023/01/09 15:17:22;;;;;;;9.43;2.50;;;;;;;18.93;nan;102550.69;4868586;29;20460;-88
2023/01/09 15:19:50;;;;;;;8.83;2.70;;;;;;;18.87;nan;102557.03;4856561;29;20466;-88
2023/01/09 15:22:34;;;;;;;16.17;2.97;;;;;;;18.73;nan;102555.25;4846840;29;20628;-88
2023/01/09 15:25:37;;;;;;;15.83;2.77;;;;;;;18.57;nan;102557.25;4811880;29;20455;-88
2023/01/09 15:28:30;;;;;;;9.30;3.03;;;;;;;18.52;nan;102565.31;4792798;29;20470;-88
2023/01/09 15:31:06;;;;;;;6.90;2.10;;;;;;;18.48;nan;102558.44;4806847;29;20463;-88
2023/01/09 15:33:34;;;;;;;8.47;2.33;;;;;;;18.40;nan;102572.47;4855167;29;20482;-88
2023/01/09 15:36:04;;;;;;;10.20;2.10;;;;;;;18.34;nan;102567.72;4846729;29;20488;-87
2023/01/09 15:38:34;;;;;;;18.53;2.40;;;;;;;18.37;nan;102561.78;4832362;29;20869;-89
2023/01/09 15:41:10;;;;;;;10.87;1.70;;;;;;;18.38;nan;102559.88;4832536;29;20459;-88
2023/01/09 15:43:41;;;;;;;14.30;1.80;;;;;;;18.35;nan;102566.66;4831224;29;20494;-88
2023/01/09 15:46:15;;;;;;;8.87;2.00;;;;;;;18.37;nan;102561.78;4846989;29;20487;-88
2023/01/09 15:48:45;;;;;;;12.80;1.53;;;;;;;18.52;nan;102557.00;4846778;29;20448;-88
2023/01/09 15:51:20;;;;;;;13.23;2.47;;;;;;;18.63;nan;102555.63;4846254;29;20467;-88
2023/01/09 15:53:53;;;;;;;15.73;2.70;;;;;;;18.83;nan;102564.06;4831479;29;20459;-87
2023/01/09 15:56:24;;;;;;;7.00;1.87;;;;;;;18.97;nan;102563.06;4846414;29;20439;-88
2023/01/09 15:58:53;;;;;;;12.20;2.50;;;;;;;19.09;nan;102560.56;4846178;29;20522;-88
2023/01/09 16:01:33;;;;;;;12.60;2.30;;;;;;;19.13;nan;102573.81;4847036;29;20459;-88
2023/01/09 16:04:16;;;;;;;10.10;1.80;;;;;;;19.05;nan;102576.72;4881313;29;20507;-88
2023/01/09 16:06:48;;;;;;;15.97;2.53;;;;;;;18.93;nan;102578.38;4887702;29;20457;-88
2023/01/09 16:09:29;;;;;;;17.20;2.50;;;;;;;18.78;nan;102580.44;4904627;29;20452;-91
2023/01/09 16:12:42;;;;;;;11.77;1.63;;;;;;;18.63;nan;102589.72;4888509;29;20463;-89
2023/01/09 16:15:14;;;;;;;11.10;1.47;;;;;;;18.52;nan;102581.91;4900650;29;20471;-88
2023/01/09 16:18:04;;;;;;;15.40;1.87;;;;;;;18.53;nan;102589.16;4869861;29;20468;-88